createdAt,value
2018-06-04T00:00:24.989Z,20.74
2018-06-04T00:02:53.735Z,20.77
2018-06-04T00:05:22.210Z,20.79
2018-06-04T00:07:51.339Z,20.76
2018-06-04T00:10:20.498Z,20.75
2018-06-04T00:12:49.190Z,20.80
2018-06-04T00:15:17.626Z,20.83
2018-06-04T00:17:46.070Z,20.87
2018-06-04T00:20:14.649Z,20.88
2018-06-04T00:22:43.485Z,20.88
2018-06-04T00:25:11.910Z,20.87
2018-06-04T00:27:40.482Z,20.86
2018-06-04T00:30:08.899Z,20.85
2018-06-04T00:32:37.394Z,20.83
2018-06-04T00:35:05.897Z,20.88
2018-06-04T00:37:34.537Z,20.88
2018-06-04T00:40:03.033Z,20.88
2018-06-04T00:42:31.903Z,20.90
2018-06-04T00:45:00.348Z,20.93
2018-06-04T00:47:29.150Z,20.94
2018-06-04T00:49:57.865Z,20.92
2018-06-04T00:52:26.313Z,20.92
2018-06-04T00:54:55.233Z,20.91
2018-06-04T00:57:23.753Z,20.90
2018-06-04T00:59:52.349Z,20.90
2018-06-04T01:02:21.051Z,20.91
2018-06-04T01:04:49.738Z,20.90
2018-06-04T01:07:18.178Z,20.90
2018-06-04T01:09:46.600Z,20.91
2018-06-04T01:12:15.486Z,20.90
2018-06-04T01:14:44.482Z,20.92
2018-06-04T01:17:13.277Z,20.92
2018-06-04T01:19:41.727Z,20.92
2018-06-04T01:22:10.772Z,20.91
2018-06-04T01:24:39.943Z,20.92
2018-06-04T01:27:08.374Z,20.91
2018-06-04T01:29:37.473Z,20.90
2018-06-04T01:32:05.894Z,20.88
2018-06-04T01:34:34.317Z,20.86
2018-06-04T01:37:03.026Z,20.83
2018-06-04T01:39:31.522Z,20.80
2018-06-04T01:42:00.026Z,20.78
2018-06-04T01:44:28.558Z,20.71
2018-06-04T01:46:57.058Z,20.65
2018-06-04T01:49:25.504Z,20.60
2018-06-04T01:51:54.022Z,20.57
2018-06-04T01:54:22.553Z,20.53
2018-06-04T01:56:50.987Z,20.50
2018-06-04T01:59:19.522Z,20.46
2018-06-04T02:01:48.366Z,20.40
2018-06-04T02:04:16.806Z,20.35
2018-06-04T02:06:45.360Z,20.29
2018-06-04T02:09:14.322Z,20.26
2018-06-04T02:11:43.014Z,20.24
2018-06-04T02:14:11.503Z,20.20
2018-06-04T02:16:40.120Z,20.16
2018-06-04T02:19:08.767Z,20.14
2018-06-04T02:21:37.257Z,20.12
2018-06-04T02:24:05.831Z,20.10
2018-06-04T02:26:34.986Z,20.08
2018-06-04T02:29:03.405Z,20.08
2018-06-04T02:31:31.904Z,20.07
2018-06-04T02:34:00.571Z,20.09
2018-06-04T02:36:29.062Z,20.09
2018-06-04T02:38:57.514Z,20.08
2018-06-04T02:41:26.329Z,20.04
2018-06-04T02:43:54.781Z,20.00
2018-06-04T02:46:23.925Z,19.97
2018-06-04T02:48:52.438Z,19.93
2018-06-04T02:51:20.902Z,19.89
2018-06-04T02:53:50.053Z,19.86
2018-06-04T02:56:18.616Z,19.87
2018-06-04T02:58:47.139Z,19.78
2018-06-04T03:01:16.274Z,19.75
2018-06-04T03:03:45.101Z,19.73
2018-06-04T03:06:13.542Z,19.69
2018-06-04T03:08:41.979Z,19.67
2018-06-04T03:11:10.482Z,19.66
2018-06-04T03:13:39.002Z,19.66
2018-06-04T03:16:07.430Z,19.65
2018-06-04T03:18:36.235Z,19.62
2018-06-04T03:21:04.699Z,19.59
2018-06-04T03:23:33.556Z,19.58
2018-06-04T03:26:02.066Z,19.56
2018-06-04T03:28:30.690Z,19.50
2018-06-04T03:30:59.367Z,19.44
2018-06-04T03:33:28.096Z,19.42
2018-06-04T03:35:57.787Z,19.41
2018-06-04T03:38:26.294Z,19.45
2018-06-04T03:40:55.288Z,19.47
2018-06-04T03:43:23.726Z,19.49
2018-06-04T03:45:52.435Z,19.50
2018-06-04T03:48:20.948Z,19.34
2018-06-04T03:50:49.397Z,19.41
2018-06-04T03:53:17.897Z,19.34
2018-06-04T03:55:46.641Z,19.28
2018-06-04T03:58:15.099Z,19.27
2018-06-04T04:00:44.241Z,19.28
2018-06-04T04:03:12.946Z,19.21
2018-06-04T04:05:42.444Z,19.14
2018-06-04T04:08:11.059Z,19.10
2018-06-04T04:10:40.234Z,19.09
2018-06-04T04:13:08.668Z,19.07
2018-06-04T04:15:37.210Z,19.01
2018-06-04T04:18:05.967Z,18.94
2018-06-04T04:20:34.567Z,18.92
2018-06-04T04:23:03.006Z,18.89
2018-06-04T04:25:31.534Z,18.89
2018-06-04T04:28:00.555Z,18.87
2018-06-04T04:30:29.605Z,18.84
2018-06-04T04:32:58.412Z,18.81
2018-06-04T04:35:26.898Z,18.78
2018-06-04T04:37:55.845Z,18.74
2018-06-04T04:40:24.730Z,18.70
2018-06-04T04:42:53.178Z,18.66
2018-06-04T04:45:21.834Z,18.69
2018-06-04T04:47:50.271Z,18.70
2018-06-04T04:50:18.725Z,18.76
2018-06-04T04:52:48.106Z,18.76
2018-06-04T04:55:16.537Z,18.82
2018-06-04T04:57:44.996Z,18.90
2018-06-04T05:00:13.456Z,18.87
2018-06-04T05:02:41.869Z,18.84
2018-06-04T05:05:10.433Z,18.89
2018-06-04T05:07:38.937Z,19.00
2018-06-04T05:10:07.358Z,19.04
2018-06-04T05:12:35.903Z,19.01
2018-06-04T05:15:08.562Z,19.02
2018-06-04T05:17:37.038Z,19.01
2018-06-04T05:20:05.477Z,18.95
2018-06-04T05:22:33.997Z,18.92
2018-06-04T05:25:02.439Z,18.99
2018-06-04T05:27:30.920Z,19.04
2018-06-04T05:29:59.770Z,19.09
2018-06-04T05:32:28.842Z,19.08
2018-06-04T05:34:57.250Z,19.02
2018-06-04T05:37:26.064Z,18.97
2018-06-04T05:39:54.548Z,18.99
2018-06-04T05:42:23.089Z,18.96
2018-06-04T05:44:51.889Z,18.88
2018-06-04T05:47:20.337Z,18.78
2018-06-04T05:49:48.746Z,18.76
2018-06-04T05:52:17.279Z,18.75
2018-06-04T05:54:45.846Z,18.70
2018-06-04T05:57:14.422Z,18.65
2018-06-04T05:59:43.085Z,18.62
2018-06-04T06:02:11.805Z,18.61
2018-06-04T06:04:40.373Z,18.59
2018-06-04T06:07:09.534Z,18.54
2018-06-04T06:09:37.978Z,18.50
2018-06-04T06:12:06.562Z,18.50
2018-06-04T06:14:35.122Z,18.50
2018-06-04T06:17:03.801Z,18.56
2018-06-04T06:19:32.220Z,18.62
2018-06-04T06:22:00.778Z,18.68
2018-06-04T06:24:29.553Z,18.75
2018-06-04T06:26:58.073Z,18.83
2018-06-04T06:29:26.784Z,18.93
2018-06-04T06:31:55.265Z,18.99
2018-06-04T06:34:24.152Z,19.21
2018-06-04T06:36:52.806Z,19.37
2018-06-04T06:39:21.298Z,19.48
2018-06-04T06:41:49.955Z,19.57
2018-06-04T06:44:19.016Z,19.64
2018-06-04T06:46:47.714Z,19.75
2018-06-04T06:49:16.354Z,19.83
2018-06-04T06:51:45.462Z,19.80
2018-06-04T06:54:14.282Z,19.73
2018-06-04T06:56:42.824Z,19.65
2018-06-04T06:59:11.742Z,19.63
2018-06-04T07:01:40.510Z,19.63
2018-06-04T07:04:08.941Z,19.60
2018-06-04T07:06:37.374Z,19.59
2018-06-04T07:09:08.786Z,19.62
2018-06-04T07:11:37.934Z,19.61
2018-06-04T07:14:06.845Z,19.63
2018-06-04T07:16:35.646Z,19.70
2018-06-04T07:19:04.301Z,19.81
2018-06-04T07:21:32.806Z,19.92
2018-06-04T07:24:02.030Z,20.05
2018-06-04T07:26:30.545Z,20.21
2018-06-04T07:28:59.068Z,20.44
2018-06-04T07:31:27.758Z,20.63
2018-06-04T07:33:56.414Z,20.89
2018-06-04T07:36:25.629Z,21.29
2018-06-04T07:38:54.103Z,21.94
2018-06-04T07:41:23.319Z,22.46
2018-06-04T07:43:51.867Z,22.95
2018-06-04T07:46:20.322Z,23.58
2018-06-04T07:48:48.963Z,24.16
2018-06-04T07:51:17.816Z,24.50
2018-06-04T07:53:46.295Z,24.88
2018-06-04T07:56:14.709Z,25.32
2018-06-04T07:58:43.210Z,25.46
2018-06-04T08:01:11.915Z,25.59
2018-06-04T08:03:40.322Z,25.42
2018-06-04T08:06:09.414Z,25.38
2018-06-04T08:08:38.353Z,25.54
2018-06-04T08:11:06.790Z,25.82
2018-06-04T08:13:35.369Z,26.07
2018-06-04T08:16:03.986Z,26.19
2018-06-04T08:18:32.396Z,26.41
2018-06-04T08:21:00.805Z,26.63
2018-06-04T08:23:29.921Z,26.82
2018-06-04T08:25:58.721Z,26.77
2018-06-04T08:28:27.503Z,26.96
2018-06-04T08:30:55.937Z,27.13
2018-06-04T08:33:24.697Z,26.95
2018-06-04T08:35:53.534Z,26.70
2018-06-04T08:38:22.245Z,26.36
2018-06-04T08:40:50.920Z,26.17
2018-06-04T08:43:19.825Z,25.99
2018-06-04T08:45:48.406Z,25.90
2018-06-04T08:48:17.270Z,26.04
2018-06-04T08:50:46.265Z,26.18
2018-06-04T08:53:14.699Z,26.20
2018-06-04T08:55:43.558Z,26.40
2018-06-04T08:58:12.322Z,26.67
2018-06-04T09:00:40.930Z,26.72
2018-06-04T09:03:09.357Z,26.54
2018-06-04T09:05:38.374Z,26.42
2018-06-04T09:08:06.806Z,26.57
2018-06-04T09:10:35.763Z,26.92
2018-06-04T09:13:04.679Z,27.26
2018-06-04T09:15:33.252Z,27.62
2018-06-04T09:18:01.663Z,28.02
2018-06-04T09:20:30.538Z,28.41
2018-06-04T09:22:59.105Z,28.77
2018-06-04T09:25:27.605Z,28.92
2018-06-04T09:27:56.666Z,28.93
2018-06-04T09:30:25.200Z,28.92
2018-06-04T09:32:53.662Z,29.17
2018-06-04T09:35:22.327Z,29.30
2018-06-04T09:37:50.786Z,29.51
2018-06-04T09:40:19.521Z,29.79
2018-06-04T09:42:48.095Z,30.04
2018-06-04T09:45:16.554Z,30.11
2018-06-04T09:47:45.058Z,30.25
2018-06-04T09:50:20.475Z,30.42
2018-06-04T09:52:49.048Z,30.40
2018-06-04T09:55:17.925Z,30.30
2018-06-04T09:57:46.866Z,30.30
2018-06-04T10:00:19.438Z,30.41
2018-06-04T10:02:48.610Z,30.68
2018-06-04T10:05:17.262Z,30.70
2018-06-04T10:07:45.681Z,30.74
2018-06-04T10:10:14.390Z,30.73
2018-06-04T10:12:42.809Z,30.65
2018-06-04T10:15:11.394Z,30.54
2018-06-04T10:17:39.907Z,30.57
2018-06-04T10:20:08.330Z,30.66
2018-06-04T10:22:37.219Z,30.79
2018-06-04T10:25:06.435Z,30.77
2018-06-04T10:27:34.909Z,30.54
2018-06-04T10:30:03.570Z,30.50
2018-06-04T10:32:32.432Z,30.42
2018-06-04T10:35:00.844Z,30.49
2018-06-04T10:37:29.598Z,30.40
2018-06-04T10:39:58.879Z,30.38
2018-06-04T10:42:27.710Z,30.39
2018-06-04T10:44:56.221Z,30.34
2018-06-04T10:47:24.721Z,30.04
2018-06-04T10:49:53.220Z,29.95
2018-06-04T10:52:22.298Z,29.98
2018-06-04T10:54:51.005Z,30.20
2018-06-04T10:57:19.497Z,30.32
2018-06-04T10:59:48.010Z,30.50
2018-06-04T11:02:16.766Z,29.99
2018-06-04T11:04:45.227Z,30.40
2018-06-04T11:07:14.254Z,30.31
2018-06-04T11:09:42.845Z,30.18
2018-06-04T11:12:11.411Z,29.99
2018-06-04T11:14:40.009Z,30.01
2018-06-04T11:17:08.766Z,30.07
2018-06-04T11:19:37.175Z,30.14
2018-06-04T11:22:05.594Z,30.29
2018-06-04T11:24:34.099Z,30.39
2018-06-04T11:27:02.514Z,30.54
2018-06-04T11:29:31.054Z,30.27
2018-06-04T11:31:59.682Z,30.20
2018-06-04T11:34:28.327Z,30.25
2018-06-04T11:36:57.089Z,30.08
2018-06-04T11:39:25.766Z,30.08
2018-06-04T11:41:54.185Z,30.36
2018-06-04T11:44:29.825Z,30.55
2018-06-04T11:46:58.682Z,30.62
2018-06-04T11:49:27.093Z,30.44
2018-06-04T11:51:56.314Z,30.47
2018-06-04T11:54:24.844Z,30.53
2018-06-04T11:56:53.255Z,30.75
2018-06-04T11:59:21.957Z,30.78
2018-06-04T12:01:50.521Z,30.50
2018-06-04T12:04:18.941Z,30.53
2018-06-04T12:06:47.777Z,30.73
2018-06-04T12:09:16.444Z,30.86
2018-06-04T12:11:44.888Z,30.96
2018-06-04T12:14:13.333Z,30.94
2018-06-04T12:16:42.197Z,31.11
2018-06-04T12:19:10.628Z,31.39
2018-06-04T12:21:39.284Z,31.14
2018-06-04T12:24:07.941Z,30.92
2018-06-04T12:26:36.370Z,30.82
2018-06-04T12:29:05.245Z,31.14
2018-06-04T12:31:33.736Z,31.45
2018-06-04T12:34:02.303Z,31.20
2018-06-04T12:36:31.117Z,31.17
2018-06-04T12:38:59.770Z,31.62
2018-06-04T12:41:28.197Z,31.32
2018-06-04T12:43:56.736Z,30.92
2018-06-04T12:46:25.699Z,31.30
2018-06-04T12:48:54.105Z,31.92
2018-06-04T12:51:22.637Z,32.22
2018-06-04T12:53:51.249Z,32.56
2018-06-04T12:56:19.663Z,32.71
2018-06-04T12:58:48.977Z,33.12
2018-06-04T13:01:18.226Z,33.20
2018-06-04T13:03:46.653Z,33.32
2018-06-04T13:06:15.161Z,33.44
2018-06-04T13:08:43.736Z,33.63
2018-06-04T13:11:12.184Z,33.46
2018-06-04T13:13:41.001Z,32.12
2018-06-04T13:16:09.773Z,32.99
2018-06-04T13:18:38.209Z,33.56
2018-06-04T13:21:06.749Z,33.42
2018-06-04T13:23:36.790Z,33.29
2018-06-04T13:26:05.213Z,33.36
2018-06-04T13:28:34.014Z,33.83
2018-06-04T13:31:02.529Z,34.07
2018-06-04T13:33:31.106Z,33.63
2018-06-04T13:35:59.933Z,32.78
2018-06-04T13:38:28.563Z,32.98
2018-06-04T13:40:56.969Z,33.78
2018-06-04T13:43:25.610Z,34.00
2018-06-04T13:45:54.129Z,34.09
2018-06-04T13:48:23.717Z,33.86
2018-06-04T13:50:52.296Z,33.61
2018-06-04T13:53:20.963Z,33.93
2018-06-04T13:55:49.797Z,34.52
2018-06-04T13:58:18.385Z,34.48
2018-06-04T14:00:46.973Z,34.62
2018-06-04T14:03:15.442Z,33.71
2018-06-04T14:05:45.174Z,32.91
2018-06-04T14:08:14.053Z,32.83
2018-06-04T14:10:42.464Z,33.18
2018-06-04T14:13:11.089Z,33.68
2018-06-04T14:15:39.585Z,33.81
2018-06-04T14:18:08.080Z,34.03
2018-06-04T14:20:37.017Z,34.83
2018-06-04T14:23:06.065Z,35.14
2018-06-04T14:25:34.477Z,35.19
2018-06-04T14:28:03.377Z,35.59
2018-06-04T14:30:31.961Z,35.87
2018-06-04T14:33:00.393Z,36.02
2018-06-04T14:35:29.129Z,35.98
2018-06-04T14:37:58.673Z,35.41
2018-06-04T14:40:27.221Z,35.27
2018-06-04T14:42:55.882Z,35.39
2018-06-04T14:45:24.441Z,35.85
2018-06-04T14:47:53.793Z,36.11
2018-06-04T14:50:22.573Z,36.22
2018-06-04T14:52:51.073Z,35.60
2018-06-04T14:55:19.620Z,35.00
2018-06-04T14:57:48.153Z,35.06
2018-06-04T15:00:16.653Z,35.42
2018-06-04T15:02:45.094Z,35.51
2018-06-04T15:05:13.656Z,35.89
2018-06-04T15:07:42.235Z,36.00
2018-06-04T15:10:10.705Z,35.89
2018-06-04T15:12:39.214Z,35.50
2018-06-04T15:15:07.903Z,35.19
2018-06-04T15:17:36.317Z,34.25
2018-06-04T15:20:05.202Z,32.72
2018-06-04T15:22:33.659Z,30.68
2018-06-04T15:25:02.082Z,29.70
2018-06-04T15:27:30.651Z,30.18
2018-06-04T15:30:00.257Z,29.96
2018-06-04T15:32:28.811Z,30.24
2018-06-04T15:34:57.722Z,29.96
2018-06-04T15:37:26.680Z,30.90
2018-06-04T15:39:55.441Z,31.90
2018-06-04T15:42:23.997Z,32.18
2018-06-04T15:44:53.219Z,31.77
2018-06-04T15:47:21.669Z,31.35
2018-06-04T15:49:50.713Z,30.22
2018-06-04T15:52:19.249Z,29.22
2018-06-04T15:54:48.307Z,28.17
2018-06-04T15:57:18.882Z,27.09
2018-06-04T15:59:47.284Z,26.39
2018-06-04T16:02:15.701Z,26.10
2018-06-04T16:04:46.006Z,25.37
2018-06-04T16:07:14.437Z,24.22
2018-06-04T16:09:47.417Z,23.40
2018-06-04T16:12:15.827Z,22.76
2018-06-04T16:14:44.285Z,22.78
2018-06-04T16:17:13.500Z,23.85
2018-06-04T16:19:41.969Z,24.70
2018-06-04T16:22:10.455Z,25.04
2018-06-04T16:24:39.577Z,24.35
2018-06-04T16:27:08.009Z,23.56
2018-06-04T16:29:36.619Z,23.23
2018-06-04T16:32:05.634Z,23.79
2018-06-04T16:34:34.098Z,23.40
2018-06-04T16:37:02.585Z,22.98
2018-06-04T16:39:31.771Z,22.65
2018-06-04T16:42:03.423Z,22.48
2018-06-04T16:44:31.991Z,22.52
2018-06-04T16:47:00.538Z,19.70
2018-06-04T16:49:29.984Z,22.46
2018-06-04T16:51:59.245Z,23.05
2018-06-04T16:54:29.632Z,23.30
2018-06-04T16:56:58.877Z,23.50
2018-06-04T16:59:27.913Z,23.45
2018-06-04T17:01:56.670Z,22.85
2018-06-04T17:04:25.112Z,22.30
2018-06-04T17:06:53.791Z,21.90
2018-06-04T17:09:22.412Z,21.43
2018-06-04T17:11:50.833Z,21.25
2018-06-04T17:14:26.377Z,21.10
2018-06-04T17:16:54.821Z,20.85
2018-06-04T17:19:23.269Z,20.71
2018-06-04T17:21:52.056Z,20.64
2018-06-04T17:24:20.485Z,20.64
2018-06-04T17:26:48.906Z,20.66
2018-06-04T17:29:18.103Z,20.60
2018-06-04T17:31:46.537Z,20.26
2018-06-04T17:34:15.118Z,20.09
2018-06-04T17:36:43.876Z,20.06
2018-06-04T17:39:12.289Z,19.88
2018-06-04T17:41:40.781Z,19.78
2018-06-04T17:44:09.785Z,19.65
2018-06-04T17:46:38.310Z,19.47
2018-06-04T17:49:06.781Z,19.25
2018-06-04T17:51:36.686Z,19.11
2018-06-04T17:54:05.110Z,19.04
2018-06-04T17:56:33.755Z,19.03
2018-06-04T17:59:21.553Z,19.01
2018-06-04T18:01:50.075Z,18.96
2018-06-04T18:04:18.493Z,18.84
2018-06-04T18:06:47.913Z,18.66
2018-06-04T18:09:18.855Z,18.47
2018-06-04T18:11:47.339Z,18.40
2018-06-04T18:14:16.222Z,18.39
2018-06-04T18:16:44.891Z,18.27
2018-06-04T18:19:13.356Z,18.16
2018-06-04T18:21:41.865Z,18.12
2018-06-04T18:24:10.376Z,18.13
2018-06-04T18:26:41.755Z,18.02
2018-06-04T18:29:10.297Z,17.92
2018-06-04T18:31:39.249Z,17.80
2018-06-04T18:34:07.657Z,17.67
2018-06-04T18:36:36.086Z,17.41
2018-06-04T18:39:06.248Z,17.27
2018-06-04T18:41:37.682Z,17.00
2018-06-04T18:44:06.623Z,16.90
2018-06-04T18:46:35.653Z,16.68
2018-06-04T18:49:06.401Z,16.36
2018-06-04T18:51:35.081Z,16.38
2018-06-04T18:54:03.530Z,16.29
2018-06-04T18:56:32.089Z,16.18
2018-06-04T18:59:00.759Z,16.08
2018-06-04T19:01:29.206Z,15.96
2018-06-04T19:03:57.748Z,15.96
2018-06-04T19:06:26.579Z,15.95
2018-06-04T19:08:55.161Z,15.85
2018-06-04T19:11:23.831Z,15.79
2018-06-04T19:13:52.378Z,15.84
2018-06-04T19:16:20.813Z,15.73
2018-06-04T19:18:49.257Z,15.60
2018-06-04T19:21:17.757Z,15.47
2018-06-04T19:23:46.177Z,15.36
2018-06-04T19:26:15.082Z,15.22
2018-06-04T19:28:44.200Z,15.12
2018-06-04T19:31:12.708Z,15.04
2018-06-04T19:33:41.237Z,15.05
2018-06-04T19:36:09.665Z,14.98
2018-06-04T19:38:38.098Z,14.94
2018-06-04T19:41:06.667Z,14.91
2018-06-04T19:43:35.106Z,14.84
2018-06-04T19:46:03.567Z,14.70
2018-06-04T19:48:32.337Z,14.61
2018-06-04T19:51:00.843Z,14.57
2018-06-04T19:53:29.329Z,14.57
2018-06-04T19:55:57.777Z,14.60
2018-06-04T19:58:26.277Z,14.73
2018-06-04T20:00:54.939Z,14.85
2018-06-04T20:03:24.027Z,15.00
2018-06-04T20:05:52.529Z,14.89
2018-06-04T20:08:20.942Z,14.81
2018-06-04T20:10:49.962Z,14.87
2018-06-04T20:13:18.633Z,14.87
2018-06-04T20:15:47.043Z,14.74
2018-06-04T20:18:15.577Z,14.54
2018-06-04T20:20:44.390Z,14.43
2018-06-04T20:23:14.701Z,14.43
2018-06-04T20:25:43.298Z,14.48
2018-06-04T20:28:12.058Z,14.58
2018-06-04T20:30:40.478Z,14.65
2018-06-04T20:33:09.313Z,13.91
2018-06-04T20:35:38.043Z,14.52
2018-06-04T20:38:06.478Z,14.41
2018-06-04T20:40:34.956Z,14.28
2018-06-04T20:43:07.289Z,14.29
2018-06-04T20:45:38.077Z,12.69
2018-06-04T20:48:07.890Z,14.45
2018-06-04T20:50:37.289Z,14.42
2018-06-04T20:53:08.587Z,14.42
2018-06-04T20:55:38.450Z,14.48
2018-06-04T20:58:07.386Z,14.64
2018-06-04T21:00:39.806Z,14.76
2018-06-04T21:03:09.870Z,14.87
2018-06-04T21:05:39.357Z,14.94
2018-06-04T21:08:11.329Z,15.04
2018-06-04T21:10:40.334Z,15.13
2018-06-04T21:13:08.841Z,14.50
2018-06-04T21:15:37.593Z,15.26
2018-06-04T21:18:06.021Z,15.32
2018-06-04T21:20:34.513Z,15.40
2018-06-04T21:23:03.672Z,15.43
2018-06-04T21:25:32.108Z,15.44
2018-06-04T21:28:00.685Z,15.47
2018-06-04T21:30:29.375Z,15.50
2018-06-04T21:32:57.797Z,15.49
2018-06-04T21:35:26.553Z,15.49
2018-06-04T21:37:55.377Z,15.46
2018-06-04T21:40:23.808Z,15.43
2018-06-04T21:42:52.510Z,15.44
2018-06-04T21:45:21.407Z,15.51
2018-06-04T21:47:49.819Z,15.50
2018-06-04T21:50:18.544Z,15.43
2018-06-04T21:52:47.542Z,15.40
2018-06-04T21:55:15.988Z,15.36
2018-06-04T21:57:44.598Z,15.33
2018-06-04T22:00:13.229Z,15.24
2018-06-04T22:02:41.641Z,15.18
2018-06-04T22:05:10.259Z,15.10
2018-06-04T22:07:39.986Z,15.11
2018-06-04T22:10:08.381Z,15.10
2018-06-04T22:12:37.108Z,15.05
2018-06-04T22:15:05.677Z,14.98
2018-06-04T22:17:34.126Z,14.92
2018-06-04T22:20:02.550Z,14.88
2018-06-04T22:22:31.399Z,14.87
2018-06-04T22:24:59.815Z,14.78
2018-06-04T22:27:28.330Z,14.73
2018-06-04T22:29:57.506Z,14.65
2018-06-04T22:32:25.909Z,14.63
2018-06-04T22:34:54.333Z,14.59
2018-06-04T22:37:24.965Z,14.55
2018-06-04T22:39:53.373Z,14.50
2018-06-04T22:42:21.788Z,14.47
2018-06-04T22:44:51.141Z,14.42
2018-06-04T22:47:19.557Z,14.39
2018-06-04T22:49:47.969Z,14.35
2018-06-04T22:52:20.577Z,14.32
2018-06-04T22:54:49.395Z,14.27
2018-06-04T22:57:17.801Z,14.21
2018-06-04T22:59:47.177Z,14.06
2018-06-04T23:02:15.602Z,13.91
2018-06-04T23:04:44.017Z,13.76
2018-06-04T23:07:13.021Z,13.63
2018-06-04T23:09:41.432Z,13.54
2018-06-04T23:12:09.841Z,13.43
2018-06-04T23:14:38.981Z,13.30
2018-06-04T23:17:07.397Z,13.22
2018-06-04T23:19:35.866Z,13.12
2018-06-04T23:22:04.828Z,13.02
2018-06-04T23:24:33.790Z,12.92
2018-06-04T23:27:02.198Z,12.83
2018-06-04T23:29:31.212Z,12.77
2018-06-04T23:32:00.171Z,12.71
2018-06-04T23:34:28.607Z,12.63
2018-06-04T23:36:57.581Z,12.55
2018-06-04T23:39:28.179Z,12.48
2018-06-04T23:42:00.361Z,12.40
2018-06-04T23:44:28.809Z,12.35
2018-06-04T23:46:57.218Z,12.29
2018-06-04T23:49:27.657Z,12.25
2018-06-04T23:51:56.321Z,12.19
2018-06-04T23:54:24.753Z,12.14
2018-06-04T23:56:54.098Z,12.11
2018-06-04T23:59:23.446Z,12.05
